sensor_id;sensor_type;location;lat;lon;timestamp;P1;durP1;ratioP1;P2;durP2;ratioP2
24801;SDS011;12898;50.520;12.152;2023-12-14T00:00:29;18.07;;;11.27;;
24801;SDS011;12898;50.520;12.152;2023-12-14T00:02:55;17.13;;;10.43;;
24801;SDS011;12898;50.520;12.152;2023-12-14T00:05:21;23.13;;;12.03;;
24801;SDS011;12898;50.520;12.152;2023-12-14T00:07:47;20.23;;;11.83;;
24801;SDS011;12898;50.520;12.152;2023-12-14T00:10:13;18.57;;;10.67;;
24801;SDS011;12898;50.520;12.152;2023-12-14T00:12:38;18.47;;;10.67;;
24801;SDS011;12898;50.520;12.152;2023-12-14T00:15:05;19.40;;;11.77;;
24801;SDS011;12898;50.520;12.152;2023-12-14T00:17:31;21.10;;;11.23;;
24801;SDS011;12898;50.520;12.152;2023-12-14T00:19:57;21.80;;;11.77;;
24801;SDS011;12898;50.520;12.152;2023-12-14T00:22:23;21.57;;;12.27;;
24801;SDS011;12898;50.520;12.152;2023-12-14T00:24:49;25.33;;;12.73;;
24801;SDS011;12898;50.520;12.152;2023-12-14T00:27:15;19.67;;;11.47;;
24801;SDS011;12898;50.520;12.152;2023-12-14T00:29:40;24.07;;;13.37;;
24801;SDS011;12898;50.520;12.152;2023-12-14T00:32:06;20.73;;;12.03;;
24801;SDS011;12898;50.520;12.152;2023-12-14T00:34:32;18.00;;;11.03;;
24801;SDS011;12898;50.520;12.152;2023-12-14T00:36:58;21.00;;;12.47;;
24801;SDS011;12898;50.520;12.152;2023-12-14T00:39:23;21.33;;;12.83;;
24801;SDS011;12898;50.520;12.152;2023-12-14T00:41:49;21.37;;;12.83;;
24801;SDS011;12898;50.520;12.152;2023-12-14T00:44:15;24.47;;;14.17;;
24801;SDS011;12898;50.520;12.152;2023-12-14T00:46:40;21.50;;;13.50;;
24801;SDS011;12898;50.520;12.152;2023-12-14T00:49:06;20.77;;;13.00;;
24801;SDS011;12898;50.520;12.152;2023-12-14T00:51:33;23.00;;;14.80;;
24801;SDS011;12898;50.520;12.152;2023-12-14T00:53:58;23.13;;;14.87;;
24801;SDS011;12898;50.520;12.152;2023-12-14T00:56:24;21.90;;;13.97;;
24801;SDS011;12898;50.520;12.152;2023-12-14T00:58:50;24.87;;;15.30;;
24801;SDS011;12898;50.520;12.152;2023-12-14T01:01:15;25.47;;;16.43;;
24801;SDS011;12898;50.520;12.152;2023-12-14T01:03:41;23.07;;;15.53;;
24801;SDS011;12898;50.520;12.152;2023-12-14T01:06:07;23.50;;;14.80;;
24801;SDS011;12898;50.520;12.152;2023-12-14T01:08:33;20.60;;;13.97;;
24801;SDS011;12898;50.520;12.152;2023-12-14T01:10:58;24.23;;;15.00;;
24801;SDS011;12898;50.520;12.152;2023-12-14T01:13:24;23.03;;;15.47;;
24801;SDS011;12898;50.520;12.152;2023-12-14T01:15:50;22.90;;;15.77;;
24801;SDS011;12898;50.520;12.152;2023-12-14T01:18:15;21.53;;;13.97;;
24801;SDS011;12898;50.520;12.152;2023-12-14T01:20:42;25.30;;;15.63;;
24801;SDS011;12898;50.520;12.152;2023-12-14T01:23:08;21.13;;;14.37;;
24801;SDS011;12898;50.520;12.152;2023-12-14T01:25:34;21.77;;;14.83;;
24801;SDS011;12898;50.520;12.152;2023-12-14T01:28:01;22.93;;;14.73;;
24801;SDS011;12898;50.520;12.152;2023-12-14T01:30:27;26.43;;;15.23;;
24801;SDS011;12898;50.520;12.152;2023-12-14T01:32:53;25.03;;;15.57;;
24801;SDS011;12898;50.520;12.152;2023-12-14T01:35:18;21.83;;;14.80;;
24801;SDS011;12898;50.520;12.152;2023-12-14T01:37:44;22.53;;;13.43;;
24801;SDS011;12898;50.520;12.152;2023-12-14T01:40:10;23.03;;;15.23;;
24801;SDS011;12898;50.520;12.152;2023-12-14T01:42:36;21.07;;;13.47;;
24801;SDS011;12898;50.520;12.152;2023-12-14T01:45:02;23.90;;;14.80;;
24801;SDS011;12898;50.520;12.152;2023-12-14T01:47:29;23.30;;;16.00;;
24801;SDS011;12898;50.520;12.152;2023-12-14T01:49:55;22.17;;;14.70;;
24801;SDS011;12898;50.520;12.152;2023-12-14T01:52:21;20.73;;;13.07;;
24801;SDS011;12898;50.520;12.152;2023-12-14T01:54:47;20.00;;;13.00;;
24801;SDS011;12898;50.520;12.152;2023-12-14T01:57:12;26.10;;;17.23;;
24801;SDS011;12898;50.520;12.152;2023-12-14T01:59:38;22.80;;;15.57;;
24801;SDS011;12898;50.520;12.152;2023-12-14T02:02:04;23.20;;;15.20;;
24801;SDS011;12898;50.520;12.152;2023-12-14T02:04:30;21.13;;;13.90;;
24801;SDS011;12898;50.520;12.152;2023-12-14T02:06:56;20.53;;;13.13;;
24801;SDS011;12898;50.520;12.152;2023-12-14T02:09:22;23.40;;;13.90;;
24801;SDS011;12898;50.520;12.152;2023-12-14T02:11:48;23.07;;;14.33;;
24801;SDS011;12898;50.520;12.152;2023-12-14T02:14:13;22.60;;;13.60;;
24801;SDS011;12898;50.520;12.152;2023-12-14T02:16:39;20.00;;;13.53;;
24801;SDS011;12898;50.520;12.152;2023-12-14T02:19:05;18.73;;;12.90;;
24801;SDS011;12898;50.520;12.152;2023-12-14T02:21:31;19.03;;;12.17;;
24801;SDS011;12898;50.520;12.152;2023-12-14T02:23:57;19.67;;;12.43;;
24801;SDS011;12898;50.520;12.152;2023-12-14T02:26:23;20.30;;;12.77;;
24801;SDS011;12898;50.520;12.152;2023-12-14T02:28:48;20.60;;;13.50;;
24801;SDS011;12898;50.520;12.152;2023-12-14T02:31:14;18.87;;;11.53;;
24801;SDS011;12898;50.520;12.152;2023-12-14T02:33:40;18.77;;;11.47;;
24801;SDS011;12898;50.520;12.152;2023-12-14T02:36:06;20.43;;;12.67;;
24801;SDS011;12898;50.520;12.152;2023-12-14T02:38:32;23.40;;;13.47;;
24801;SDS011;12898;50.520;12.152;2023-12-14T02:40:59;20.60;;;11.90;;
24801;SDS011;12898;50.520;12.152;2023-12-14T02:43:25;23.90;;;12.13;;
24801;SDS011;12898;50.520;12.152;2023-12-14T02:45:51;23.20;;;11.17;;
24801;SDS011;12898;50.520;12.152;2023-12-14T02:48:16;20.97;;;11.77;;
24801;SDS011;12898;50.520;12.152;2023-12-14T02:50:42;23.37;;;11.43;;
24801;SDS011;12898;50.520;12.152;2023-12-14T02:53:08;21.53;;;11.30;;
24801;SDS011;12898;50.520;12.152;2023-12-14T02:55:34;21.07;;;11.27;;
24801;SDS011;12898;50.520;12.152;2023-12-14T02:57:59;22.50;;;10.43;;
24801;SDS011;12898;50.520;12.152;2023-12-14T03:00:25;19.17;;;10.33;;
24801;SDS011;12898;50.520;12.152;2023-12-14T03:02:51;19.10;;;10.37;;
24801;SDS011;12898;50.520;12.152;2023-12-14T03:05:17;20.40;;;10.57;;
24801;SDS011;12898;50.520;12.152;2023-12-14T03:07:43;20.20;;;10.53;;
24801;SDS011;12898;50.520;12.152;2023-12-14T03:10:08;19.47;;;10.23;;
24801;SDS011;12898;50.520;12.152;2023-12-14T03:12:34;17.03;;;9.37;;
24801;SDS011;12898;50.520;12.152;2023-12-14T03:15:00;17.57;;;9.80;;
24801;SDS011;12898;50.520;12.152;2023-12-14T03:17:26;17.33;;;10.03;;
24801;SDS011;12898;50.520;12.152;2023-12-14T03:19:52;18.03;;;9.57;;
24801;SDS011;12898;50.520;12.152;2023-12-14T03:22:17;17.53;;;9.63;;
24801;SDS011;12898;50.520;12.152;2023-12-14T03:24:43;16.97;;;9.50;;
24801;SDS011;12898;50.520;12.152;2023-12-14T03:27:09;17.20;;;9.60;;
24801;SDS011;12898;50.520;12.152;2023-12-14T03:29:35;17.83;;;9.60;;
24801;SDS011;12898;50.520;12.152;2023-12-14T03:32:00;15.83;;;9.23;;
24801;SDS011;12898;50.520;12.152;2023-12-14T03:34:26;19.37;;;10.63;;
24801;SDS011;12898;50.520;12.152;2023-12-14T03:36:52;18.97;;;10.13;;
24801;SDS011;12898;50.520;12.152;2023-12-14T03:39:18;19.30;;;10.40;;
24801;SDS011;12898;50.520;12.152;2023-12-14T03:41:44;17.23;;;8.87;;
24801;SDS011;12898;50.520;12.152;2023-12-14T03:44:10;18.63;;;9.73;;
24801;SDS011;12898;50.520;12.152;2023-12-14T03:46:36;16.70;;;8.50;;
24801;SDS011;12898;50.520;12.152;2023-12-14T03:49:02;18.47;;;9.23;;
24801;SDS011;12898;50.520;12.152;2023-12-14T03:51:29;19.03;;;9.00;;
24801;SDS011;12898;50.520;12.152;2023-12-14T03:53:55;18.10;;;9.30;;
24801;SDS011;12898;50.520;12.152;2023-12-14T03:56:21;17.53;;;9.47;;
24801;SDS011;12898;50.520;12.152;2023-12-14T03:58:47;18.27;;;8.97;;
24801;SDS011;12898;50.520;12.152;2023-12-14T04:01:19;17.37;;;8.80;;
24801;SDS011;12898;50.520;12.152;2023-12-14T04:03:46;16.87;;;9.13;;
24801;SDS011;12898;50.520;12.152;2023-12-14T04:06:13;19.07;;;8.40;;
24801;SDS011;12898;50.520;12.152;2023-12-14T04:08:42;15.77;;;8.00;;
24801;SDS011;12898;50.520;12.152;2023-12-14T04:11:08;16.27;;;7.87;;
24801;SDS011;12898;50.520;12.152;2023-12-14T04:13:34;20.23;;;9.43;;
24801;SDS011;12898;50.520;12.152;2023-12-14T04:16:00;16.70;;;7.80;;
24801;SDS011;12898;50.520;12.152;2023-12-14T04:18:26;18.93;;;8.70;;
24801;SDS011;12898;50.520;12.152;2023-12-14T04:20:51;15.80;;;8.23;;
24801;SDS011;12898;50.520;12.152;2023-12-14T04:23:17;16.03;;;8.07;;
24801;SDS011;12898;50.520;12.152;2023-12-14T04:25:44;15.87;;;7.73;;
24801;SDS011;12898;50.520;12.152;2023-12-14T04:28:10;17.57;;;8.27;;
24801;SDS011;12898;50.520;12.152;2023-12-14T04:30:35;16.17;;;7.60;;
24801;SDS011;12898;50.520;12.152;2023-12-14T04:33:01;16.23;;;8.07;;
24801;SDS011;12898;50.520;12.152;2023-12-14T04:35:27;14.17;;;7.10;;
24801;SDS011;12898;50.520;12.152;2023-12-14T04:37:53;17.47;;;8.20;;
24801;SDS011;12898;50.520;12.152;2023-12-14T04:40:18;14.90;;;7.43;;
24801;SDS011;12898;50.520;12.152;2023-12-14T04:42:45;14.20;;;6.93;;
24801;SDS011;12898;50.520;12.152;2023-12-14T04:45:10;14.20;;;7.77;;
24801;SDS011;12898;50.520;12.152;2023-12-14T04:47:37;14.00;;;7.03;;
24801;SDS011;12898;50.520;12.152;2023-12-14T04:50:03;14.67;;;7.03;;
24801;SDS011;12898;50.520;12.152;2023-12-14T04:52:30;13.63;;;6.53;;
24801;SDS011;12898;50.520;12.152;2023-12-14T04:54:56;13.20;;;5.80;;
24801;SDS011;12898;50.520;12.152;2023-12-14T04:57:21;11.33;;;5.37;;
24801;SDS011;12898;50.520;12.152;2023-12-14T04:59:47;12.73;;;5.40;;
24801;SDS011;12898;50.520;12.152;2023-12-14T05:02:13;9.97;;;4.60;;
24801;SDS011;12898;50.520;12.152;2023-12-14T05:04:38;9.77;;;4.40;;
24801;SDS011;12898;50.520;12.152;2023-12-14T05:07:04;11.23;;;4.87;;
24801;SDS011;12898;50.520;12.152;2023-12-14T05:09:30;6.87;;;3.60;;
24801;SDS011;12898;50.520;12.152;2023-12-14T05:11:56;10.10;;;4.60;;
24801;SDS011;12898;50.520;12.152;2023-12-14T05:14:22;7.97;;;4.00;;
24801;SDS011;12898;50.520;12.152;2023-12-14T05:16:48;9.13;;;3.93;;
24801;SDS011;12898;50.520;12.152;2023-12-14T05:19:13;8.13;;;4.07;;
24801;SDS011;12898;50.520;12.152;2023-12-14T05:21:39;10.77;;;4.40;;
24801;SDS011;12898;50.520;12.152;2023-12-14T05:24:05;9.50;;;4.10;;
24801;SDS011;12898;50.520;12.152;2023-12-14T05:26:31;13.30;;;5.23;;
24801;SDS011;12898;50.520;12.152;2023-12-14T05:28:57;10.27;;;4.83;;
24801;SDS011;12898;50.520;12.152;2023-12-14T05:31:23;13.40;;;5.50;;
24801;SDS011;12898;50.520;12.152;2023-12-14T05:33:48;11.80;;;5.47;;
24801;SDS011;12898;50.520;12.152;2023-12-14T05:36:14;12.70;;;5.93;;
24801;SDS011;12898;50.520;12.152;2023-12-14T05:38:40;12.60;;;6.27;;
24801;SDS011;12898;50.520;12.152;2023-12-14T05:41:07;12.80;;;6.17;;
24801;SDS011;12898;50.520;12.152;2023-12-14T05:43:33;14.07;;;6.13;;
24801;SDS011;12898;50.520;12.152;2023-12-14T05:45:59;13.80;;;6.53;;
24801;SDS011;12898;50.520;12.152;2023-12-14T05:48:25;12.50;;;6.30;;
24801;SDS011;12898;50.520;12.152;2023-12-14T05:50:53;14.73;;;6.60;;
24801;SDS011;12898;50.520;12.152;2023-12-14T05:53:19;13.10;;;5.93;;
24801;SDS011;12898;50.520;12.152;2023-12-14T05:55:45;13.27;;;6.60;;
24801;SDS011;12898;50.520;12.152;2023-12-14T05:58:11;13.93;;;6.53;;
24801;SDS011;12898;50.520;12.152;2023-12-14T06:00:37;12.63;;;6.43;;
24801;SDS011;12898;50.520;12.152;2023-12-14T06:03:03;14.10;;;6.80;;
24801;SDS011;12898;50.520;12.152;2023-12-14T06:05:30;11.97;;;6.17;;
24801;SDS011;12898;50.520;12.152;2023-12-14T06:07:56;12.70;;;6.03;;
24801;SDS011;12898;50.520;12.152;2023-12-14T06:10:22;12.93;;;5.97;;
24801;SDS011;12898;50.520;12.152;2023-12-14T06:12:47;15.20;;;7.93;;
24801;SDS011;12898;50.520;12.152;2023-12-14T06:15:13;13.27;;;6.70;;
24801;SDS011;12898;50.520;12.152;2023-12-14T06:17:39;10.70;;;5.53;;
24801;SDS011;12898;50.520;12.152;2023-12-14T06:20:07;12.30;;;5.67;;
24801;SDS011;12898;50.520;12.152;2023-12-14T06:22:33;10.97;;;6.03;;
24801;SDS011;12898;50.520;12.152;2023-12-14T06:25:03;10.73;;;5.33;;
24801;SDS011;12898;50.520;12.152;2023-12-14T06:27:29;10.27;;;5.27;;
24801;SDS011;12898;50.520;12.152;2023-12-14T06:29:55;9.80;;;5.00;;
24801;SDS011;12898;50.520;12.152;2023-12-14T06:32:21;11.83;;;5.50;;
24801;SDS011;12898;50.520;12.152;2023-12-14T06:34:47;10.77;;;5.10;;
24801;SDS011;12898;50.520;12.152;2023-12-14T06:37:13;9.67;;;4.97;;
24801;SDS011;12898;50.520;12.152;2023-12-14T06:39:40;8.87;;;4.27;;
24801;SDS011;12898;50.520;12.152;2023-12-14T06:42:06;9.20;;;4.50;;
24801;SDS011;12898;50.520;12.152;2023-12-14T06:44:32;8.40;;;4.00;;
24801;SDS011;12898;50.520;12.152;2023-12-14T06:46:58;10.07;;;3.80;;
24801;SDS011;12898;50.520;12.152;2023-12-14T06:49:24;7.27;;;3.77;;
24801;SDS011;12898;50.520;12.152;2023-12-14T06:51:50;7.80;;;3.63;;
24801;SDS011;12898;50.520;12.152;2023-12-14T06:54:16;7.37;;;3.20;;
24801;SDS011;12898;50.520;12.152;2023-12-14T06:56:42;6.50;;;3.40;;
24801;SDS011;12898;50.520;12.152;2023-12-14T06:59:08;6.87;;;3.30;;
24801;SDS011;12898;50.520;12.152;2023-12-14T07:01:33;6.27;;;3.23;;
24801;SDS011;12898;50.520;12.152;2023-12-14T07:03:59;6.97;;;3.47;;
24801;SDS011;12898;50.520;12.152;2023-12-14T07:06:25;7.00;;;3.37;;
24801;SDS011;12898;50.520;12.152;2023-12-14T07:08:51;6.50;;;3.43;;
24801;SDS011;12898;50.520;12.152;2023-12-14T07:11:17;7.83;;;3.03;;
24801;SDS011;12898;50.520;12.152;2023-12-14T07:13:42;7.13;;;3.33;;
24801;SDS011;12898;50.520;12.152;2023-12-14T07:16:09;7.63;;;3.67;;
24801;SDS011;12898;50.520;12.152;2023-12-14T07:18:36;7.33;;;3.60;;
24801;SDS011;12898;50.520;12.152;2023-12-14T07:21:04;7.20;;;3.07;;
24801;SDS011;12898;50.520;12.152;2023-12-14T07:23:30;8.03;;;3.10;;
24801;SDS011;12898;50.520;12.152;2023-12-14T07:25:56;8.13;;;3.37;;
24801;SDS011;12898;50.520;12.152;2023-12-14T07:28:22;8.57;;;3.77;;
24801;SDS011;12898;50.520;12.152;2023-12-14T07:30:48;7.83;;;3.67;;
24801;SDS011;12898;50.520;12.152;2023-12-14T07:33:14;8.60;;;4.17;;
24801;SDS011;12898;50.520;12.152;2023-12-14T07:35:41;9.23;;;4.20;;
24801;SDS011;12898;50.520;12.152;2023-12-14T07:38:06;10.00;;;4.77;;
24801;SDS011;12898;50.520;12.152;2023-12-14T07:40:34;10.50;;;4.47;;
24801;SDS011;12898;50.520;12.152;2023-12-14T07:43:00;10.77;;;5.53;;
24801;SDS011;12898;50.520;12.152;2023-12-14T07:45:26;8.37;;;4.50;;
24801;SDS011;12898;50.520;12.152;2023-12-14T07:47:52;9.27;;;4.73;;
24801;SDS011;12898;50.520;12.152;2023-12-14T07:50:18;8.43;;;4.60;;
24801;SDS011;12898;50.520;12.152;2023-12-14T07:52:44;8.47;;;4.57;;
24801;SDS011;12898;50.520;12.152;2023-12-14T07:55:10;7.47;;;3.97;;
24801;SDS011;12898;50.520;12.152;2023-12-14T07:57:38;12.20;;;6.17;;
24801;SDS011;12898;50.520;12.152;2023-12-14T08:00:04;11.10;;;5.63;;
24801;SDS011;12898;50.520;12.152;2023-12-14T08:02:33;9.87;;;5.20;;
24801;SDS011;12898;50.520;12.152;2023-12-14T08:04:59;10.57;;;4.83;;
24801;SDS011;12898;50.520;12.152;2023-12-14T08:07:25;7.97;;;4.00;;
24801;SDS011;12898;50.520;12.152;2023-12-14T08:09:54;9.33;;;4.37;;
24801;SDS011;12898;50.520;12.152;2023-12-14T08:12:20;8.20;;;4.20;;
24801;SDS011;12898;50.520;12.152;2023-12-14T08:14:47;7.57;;;3.93;;
24801;SDS011;12898;50.520;12.152;2023-12-14T08:17:13;8.80;;;4.27;;
24801;SDS011;12898;50.520;12.152;2023-12-14T08:19:38;7.37;;;4.40;;
24801;SDS011;12898;50.520;12.152;2023-12-14T08:22:04;10.40;;;5.13;;
24801;SDS011;12898;50.520;12.152;2023-12-14T08:24:30;10.47;;;5.50;;
24801;SDS011;12898;50.520;12.152;2023-12-14T08:26:56;15.27;;;7.57;;
24801;SDS011;12898;50.520;12.152;2023-12-14T08:29:22;13.53;;;7.53;;
24801;SDS011;12898;50.520;12.152;2023-12-14T08:31:48;13.23;;;7.60;;
24801;SDS011;12898;50.520;12.152;2023-12-14T08:34:14;13.30;;;7.20;;
24801;SDS011;12898;50.520;12.152;2023-12-14T08:36:39;18.47;;;8.67;;
24801;SDS011;12898;50.520;12.152;2023-12-14T08:39:05;14.63;;;7.63;;
24801;SDS011;12898;50.520;12.152;2023-12-14T08:41:31;15.17;;;7.23;;
24801;SDS011;12898;50.520;12.152;2023-12-14T08:43:57;13.57;;;6.73;;
24801;SDS011;12898;50.520;12.152;2023-12-14T08:46:23;13.67;;;7.50;;
24801;SDS011;12898;50.520;12.152;2023-12-14T08:48:49;14.53;;;7.77;;
24801;SDS011;12898;50.520;12.152;2023-12-14T08:51:15;14.47;;;6.87;;
24801;SDS011;12898;50.520;12.152;2023-12-14T08:53:40;14.63;;;7.03;;
24801;SDS011;12898;50.520;12.152;2023-12-14T08:56:08;16.60;;;7.33;;
24801;SDS011;12898;50.520;12.152;2023-12-14T08:58:34;13.80;;;6.87;;
24801;SDS011;12898;50.520;12.152;2023-12-14T09:00:59;16.53;;;7.80;;
24801;SDS011;12898;50.520;12.152;2023-12-14T09:03:25;16.37;;;8.20;;
24801;SDS011;12898;50.520;12.152;2023-12-14T09:05:51;18.23;;;8.77;;
24801;SDS011;12898;50.520;12.152;2023-12-14T09:08:17;25.23;;;9.97;;
24801;SDS011;12898;50.520;12.152;2023-12-14T09:10:43;26.93;;;9.77;;
24801;SDS011;12898;50.520;12.152;2023-12-14T09:13:09;21.50;;;9.00;;
24801;SDS011;12898;50.520;12.152;2023-12-14T09:15:35;23.10;;;9.87;;
24801;SDS011;12898;50.520;12.152;2023-12-14T09:18:01;18.00;;;8.03;;
24801;SDS011;12898;50.520;12.152;2023-12-14T09:20:27;17.87;;;7.17;;
24801;SDS011;12898;50.520;12.152;2023-12-14T09:22:53;15.37;;;6.27;;
24801;SDS011;12898;50.520;12.152;2023-12-14T09:25:19;18.67;;;6.97;;
24801;SDS011;12898;50.520;12.152;2023-12-14T09:27:45;14.53;;;6.60;;
24801;SDS011;12898;50.520;12.152;2023-12-14T09:30:11;12.60;;;6.20;;
24801;SDS011;12898;50.520;12.152;2023-12-14T09:32:37;16.97;;;6.37;;
24801;SDS011;12898;50.520;12.152;2023-12-14T09:35:05;14.40;;;6.60;;
24801;SDS011;12898;50.520;12.152;2023-12-14T09:37:31;13.90;;;6.63;;
24801;SDS011;12898;50.520;12.152;2023-12-14T09:39:57;14.57;;;7.10;;
24801;SDS011;12898;50.520;12.152;2023-12-14T09:42:23;13.37;;;6.70;;
24801;SDS011;12898;50.520;12.152;2023-12-14T09:44:49;14.27;;;6.43;;
24801;SDS011;12898;50.520;12.152;2023-12-14T09:47:17;13.47;;;6.77;;
24801;SDS011;12898;50.520;12.152;2023-12-14T09:49:43;16.33;;;7.67;;
24801;SDS011;12898;50.520;12.152;2023-12-14T09:52:11;12.30;;;6.67;;
24801;SDS011;12898;50.520;12.152;2023-12-14T09:54:37;11.90;;;6.43;;
24801;SDS011;12898;50.520;12.152;2023-12-14T09:57:03;14.03;;;6.50;;
24801;SDS011;12898;50.520;12.152;2023-12-14T09:59:29;12.47;;;6.60;;
24801;SDS011;12898;50.520;12.152;2023-12-14T10:02:08;12.63;;;6.73;;
24801;SDS011;12898;50.520;12.152;2023-12-14T10:04:37;12.70;;;6.87;;
24801;SDS011;12898;50.520;12.152;2023-12-14T10:07:03;12.83;;;7.03;;
24801;SDS011;12898;50.520;12.152;2023-12-14T10:09:32;12.30;;;6.60;;
24801;SDS011;12898;50.520;12.152;2023-12-14T10:12:04;13.87;;;6.80;;
24801;SDS011;12898;50.520;12.152;2023-12-14T10:14:34;14.50;;;7.70;;
24801;SDS011;12898;50.520;12.152;2023-12-14T10:17:18;14.13;;;7.27;;
24801;SDS011;12898;50.520;12.152;2023-12-14T10:19:46;14.83;;;7.70;;
24801;SDS011;12898;50.520;12.152;2023-12-14T10:22:13;15.80;;;8.07;;
24801;SDS011;12898;50.520;12.152;2023-12-14T10:24:42;15.63;;;7.90;;
24801;SDS011;12898;50.520;12.152;2023-12-14T10:27:10;12.60;;;6.57;;
24801;SDS011;12898;50.520;12.152;2023-12-14T10:29:36;13.77;;;7.23;;
24801;SDS011;12898;50.520;12.152;2023-12-14T10:32:04;14.90;;;8.10;;
24801;SDS011;12898;50.520;12.152;2023-12-14T10:34:32;13.10;;;7.00;;
24801;SDS011;12898;50.520;12.152;2023-12-14T10:36:59;13.67;;;7.07;;
24801;SDS011;12898;50.520;12.152;2023-12-14T10:39:26;13.33;;;6.70;;
24801;SDS011;12898;50.520;12.152;2023-12-14T10:41:53;13.57;;;6.87;;
24801;SDS011;12898;50.520;12.152;2023-12-14T10:44:22;13.17;;;7.20;;
24801;SDS011;12898;50.520;12.152;2023-12-14T10:46:54;15.37;;;7.40;;
24801;SDS011;12898;50.520;12.152;2023-12-14T10:49:22;13.47;;;6.73;;
24801;SDS011;12898;50.520;12.152;2023-12-14T10:51:52;11.50;;;6.20;;
24801;SDS011;12898;50.520;12.152;2023-12-14T10:54:22;11.90;;;6.40;;
24801;SDS011;12898;50.520;12.152;2023-12-14T10:56:50;11.57;;;6.10;;
24801;SDS011;12898;50.520;12.152;2023-12-14T10:59:21;14.10;;;6.43;;
24801;SDS011;12898;50.520;12.152;2023-12-14T11:01:52;10.97;;;5.63;;
24801;SDS011;12898;50.520;12.152;2023-12-14T11:04:21;10.07;;;5.27;;
24801;SDS011;12898;50.520;12.152;2023-12-14T11:06:47;10.87;;;4.73;;
24801;SDS011;12898;50.520;12.152;2023-12-14T11:09:13;9.33;;;4.37;;
24801;SDS011;12898;50.520;12.152;2023-12-14T11:14:18;8.00;;;4.07;;
24801;SDS011;12898;50.520;12.152;2023-12-14T11:16:45;8.27;;;4.17;;
24801;SDS011;12898;50.520;12.152;2023-12-14T11:24:21;8.17;;;3.97;;
24801;SDS011;12898;50.520;12.152;2023-12-14T11:26:51;7.13;;;3.73;;
24801;SDS011;12898;50.520;12.152;2023-12-14T11:29:17;8.07;;;3.83;;
24801;SDS011;12898;50.520;12.152;2023-12-14T11:31:44;7.87;;;3.87;;
24801;SDS011;12898;50.520;12.152;2023-12-14T11:34:11;8.63;;;4.27;;
24801;SDS011;12898;50.520;12.152;2023-12-14T11:36:37;9.10;;;3.97;;
24801;SDS011;12898;50.520;12.152;2023-12-14T11:39:07;6.33;;;3.73;;
24801;SDS011;12898;50.520;12.152;2023-12-14T11:41:34;7.83;;;4.00;;
24801;SDS011;12898;50.520;12.152;2023-12-14T11:44:01;9.80;;;4.67;;
24801;SDS011;12898;50.520;12.152;2023-12-14T11:46:28;8.83;;;4.17;;
24801;SDS011;12898;50.520;12.152;2023-12-14T11:48:56;6.93;;;3.87;;
24801;SDS011;12898;50.520;12.152;2023-12-14T11:51:22;8.93;;;4.30;;
24801;SDS011;12898;50.520;12.152;2023-12-14T11:53:50;8.43;;;4.27;;
24801;SDS011;12898;50.520;12.152;2023-12-14T11:56:17;9.63;;;4.57;;
24801;SDS011;12898;50.520;12.152;2023-12-14T11:58:43;7.93;;;3.80;;
24801;SDS011;12898;50.520;12.152;2023-12-14T12:01:15;7.53;;;4.10;;
24801;SDS011;12898;50.520;12.152;2023-12-14T12:03:42;7.33;;;3.90;;
24801;SDS011;12898;50.520;12.152;2023-12-14T12:06:19;7.03;;;3.57;;
24801;SDS011;12898;50.520;12.152;2023-12-14T12:08:55;6.90;;;3.87;;
24801;SDS011;12898;50.520;12.152;2023-12-14T12:11:22;7.57;;;3.67;;
24801;SDS011;12898;50.520;12.152;2023-12-14T12:13:53;6.97;;;3.70;;
24801;SDS011;12898;50.520;12.152;2023-12-14T12:16:21;8.57;;;4.20;;
24801;SDS011;12898;50.520;12.152;2023-12-14T12:18:47;10.73;;;4.00;;
24801;SDS011;12898;50.520;12.152;2023-12-14T12:21:13;7.30;;;3.93;;
24801;SDS011;12898;50.520;12.152;2023-12-14T12:23:39;10.33;;;4.73;;
24801;SDS011;12898;50.520;12.152;2023-12-14T12:26:07;7.60;;;3.73;;
24801;SDS011;12898;50.520;12.152;2023-12-14T12:28:33;7.50;;;3.80;;
24801;SDS011;12898;50.520;12.152;2023-12-14T12:30:59;7.53;;;3.40;;
24801;SDS011;12898;50.520;12.152;2023-12-14T12:33:25;6.13;;;3.47;;
24801;SDS011;12898;50.520;12.152;2023-12-14T12:35:51;6.70;;;3.50;;
24801;SDS011;12898;50.520;12.152;2023-12-14T12:38:18;6.77;;;3.30;;
24801;SDS011;12898;50.520;12.152;2023-12-14T12:40:46;8.00;;;3.80;;
24801;SDS011;12898;50.520;12.152;2023-12-14T12:43:13;6.83;;;3.47;;
24801;SDS011;12898;50.520;12.152;2023-12-14T12:45:39;6.60;;;3.47;;
24801;SDS011;12898;50.520;12.152;2023-12-14T12:48:05;7.43;;;3.70;;
24801;SDS011;12898;50.520;12.152;2023-12-14T12:50:32;8.20;;;3.80;;
24801;SDS011;12898;50.520;12.152;2023-12-14T12:52:58;6.17;;;3.27;;
24801;SDS011;12898;50.520;12.152;2023-12-14T12:55:24;6.10;;;3.20;;
24801;SDS011;12898;50.520;12.152;2023-12-14T12:57:49;8.40;;;3.80;;
24801;SDS011;12898;50.520;12.152;2023-12-14T13:00:15;7.67;;;3.80;;
24801;SDS011;12898;50.520;12.152;2023-12-14T13:02:42;5.40;;;3.07;;
24801;SDS011;12898;50.520;12.152;2023-12-14T13:05:10;6.67;;;3.50;;
24801;SDS011;12898;50.520;12.152;2023-12-14T13:07:36;6.57;;;3.67;;
24801;SDS011;12898;50.520;12.152;2023-12-14T13:10:03;6.77;;;3.33;;
24801;SDS011;12898;50.520;12.152;2023-12-14T13:12:31;6.33;;;3.30;;
24801;SDS011;12898;50.520;12.152;2023-12-14T13:14:57;6.40;;;3.27;;
24801;SDS011;12898;50.520;12.152;2023-12-14T13:17:22;5.53;;;3.00;;
24801;SDS011;12898;50.520;12.152;2023-12-14T13:19:48;7.07;;;3.70;;
24801;SDS011;12898;50.520;12.152;2023-12-14T13:22:14;9.53;;;4.50;;
24801;SDS011;12898;50.520;12.152;2023-12-14T13:24:40;8.47;;;4.33;;
24801;SDS011;12898;50.520;12.152;2023-12-14T13:27:06;7.00;;;3.53;;
24801;SDS011;12898;50.520;12.152;2023-12-14T13:29:32;6.63;;;3.57;;
24801;SDS011;12898;50.520;12.152;2023-12-14T13:31:59;5.33;;;3.30;;
24801;SDS011;12898;50.520;12.152;2023-12-14T13:34:26;7.50;;;4.20;;
24801;SDS011;12898;50.520;12.152;2023-12-14T13:36:53;7.57;;;3.73;;
24801;SDS011;12898;50.520;12.152;2023-12-14T13:39:19;7.20;;;3.27;;
24801;SDS011;12898;50.520;12.152;2023-12-14T13:41:45;6.70;;;4.10;;
24801;SDS011;12898;50.520;12.152;2023-12-14T13:44:11;6.10;;;3.77;;
24801;SDS011;12898;50.520;12.152;2023-12-14T13:46:37;6.60;;;3.50;;
24801;SDS011;12898;50.520;12.152;2023-12-14T13:49:02;5.73;;;3.17;;
24801;SDS011;12898;50.520;12.152;2023-12-14T13:51:28;6.37;;;3.17;;
24801;SDS011;12898;50.520;12.152;2023-12-14T13:53:54;6.10;;;2.90;;
24801;SDS011;12898;50.520;12.152;2023-12-14T13:56:20;4.57;;;2.80;;
24801;SDS011;12898;50.520;12.152;2023-12-14T13:58:46;7.03;;;2.97;;
24801;SDS011;12898;50.520;12.152;2023-12-14T14:01:11;5.50;;;3.17;;
24801;SDS011;12898;50.520;12.152;2023-12-14T14:03:38;5.00;;;3.20;;
24801;SDS011;12898;50.520;12.152;2023-12-14T14:06:06;6.70;;;2.97;;
24801;SDS011;12898;50.520;12.152;2023-12-14T14:08:32;5.40;;;2.80;;
24801;SDS011;12898;50.520;12.152;2023-12-14T14:10:58;4.70;;;2.90;;
24801;SDS011;12898;50.520;12.152;2023-12-14T14:13:25;6.07;;;3.07;;
24801;SDS011;12898;50.520;12.152;2023-12-14T14:15:51;4.87;;;3.10;;
24801;SDS011;12898;50.520;12.152;2023-12-14T14:18:17;7.60;;;3.57;;
24801;SDS011;12898;50.520;12.152;2023-12-14T14:20:43;8.00;;;4.10;;
24801;SDS011;12898;50.520;12.152;2023-12-14T14:23:08;6.23;;;3.47;;
24801;SDS011;12898;50.520;12.152;2023-12-14T14:25:34;7.17;;;3.67;;